Time;durP1;ratioP1;P1;durP2;ratioP2;P2;SDS_P1;SDS_P2;PMS_P1;PMS_P2;Temp;Humidity;BMP_temperature;BMP_pressure;BME280_temperature;BME280_humidity;BME280_pressure;Samples;Min_cycle;Max_cycle;Signal;HPM_P1;HPM_P2
2021/05/30 00:01:50;;;;;;;4.85;3.33;;;410.30;1843.20;;;;;;5033404;28;20096;-81
2021/05/30 00:04:17;;;;;;;8.57;4.38;;;410.20;1843.20;;;;;;5028188;28;20075;-81
2021/05/30 00:06:43;;;;;;;7.47;3.55;;;410.20;1817.60;;;;;;5028070;28;20489;-80
2021/05/30 00:09:08;;;;;;;5.35;3.28;;;410.20;1843.20;;;;;;5034512;28;20096;-81
2021/05/30 00:11:35;;;;;;;5.22;2.85;;;410.20;1843.20;;;;;;5032969;28;20052;-81
2021/05/30 00:14:02;;;;;;;6.85;3.03;;;410.20;1843.20;;;;;;5033408;28;20033;-81
2021/05/30 00:16:28;;;;;;;4.82;3.25;;;410.20;1868.80;;;;;;5032074;28;20033;-80
2021/05/30 00:18:54;;;;;;;4.95;3.47;;;410.00;1894.40;;;;;;5032876;28;20028;-81
2021/05/30 00:21:20;;;;;;;5.82;3.00;;;410.00;1894.40;;;;;;5066130;28;20136;-80
2021/05/30 00:23:46;;;;;;;5.25;3.17;;;410.20;1868.80;;;;;;5032460;28;20527;-81
2021/05/30 00:26:12;;;;;;;4.70;2.47;;;410.00;1868.80;;;;;;5032541;28;20041;-80
2021/05/30 00:28:37;;;;;;;4.00;3.00;;;410.00;1868.80;;;;;;5033294;28;20057;-81
2021/05/30 00:31:03;;;;;;;4.88;3.78;;;410.00;1894.40;;;;;;5033790;28;20032;-80
2021/05/30 00:33:29;;;;;;;5.15;3.70;;;410.10;1868.80;;;;;;5065805;28;20055;-80
2021/05/30 00:35:55;;;;;;;7.57;3.10;;;410.00;1894.40;;;;;;5033812;28;20025;-81
2021/05/30 00:38:20;;;;;;;8.00;3.20;;;409.90;1894.40;;;;;;5033314;28;20111;-80
2021/05/30 00:40:46;;;;;;;6.30;3.15;;;409.90;1894.40;;;;;;5033992;28;20038;-80
2021/05/30 00:43:12;;;;;;;6.28;3.28;;;409.80;1920.00;;;;;;5033095;28;20104;-81
2021/05/30 00:45:38;;;;;;;7.13;3.30;;;409.70;1920.00;;;;;;5032189;28;20041;-80
2021/05/30 00:48:04;;;;;;;6.70;3.35;;;409.90;1920.00;;;;;;5033485;28;20029;-80
2021/05/30 00:50:30;;;;;;;4.13;2.80;;;409.90;1920.00;;;;;;5032192;28;20030;-80
2021/05/30 00:52:56;;;;;;;5.18;3.20;;;409.90;1920.00;;;;;;5033020;28;20021;-81
2021/05/30 00:55:24;;;;;;;5.88;3.58;;;409.90;1920.00;;;;;;5033446;28;20531;-81
2021/05/30 00:57:50;;;;;;;5.57;3.58;;;410.00;1920.00;;;;;;5032191;28;20029;-80
2021/05/30 01:00:17;;;;;;;3.78;2.90;;;410.20;1894.40;;;;;;5031731;28;20045;-80
2021/05/30 01:02:42;;;;;;;4.50;2.97;;;410.20;1894.40;;;;;;5031599;28;20072;-80
2021/05/30 01:05:10;;;;;;;5.55;3.10;;;410.20;1894.40;;;;;;5031885;28;20053;-81
2021/05/30 01:07:42;;;;;;;5.28;2.75;;;409.90;1920.00;;;;;;5031963;28;20075;-81
2021/05/30 01:10:25;;;;;;;4.60;2.88;;;409.90;1920.00;;;;;;5031655;28;20037;-81
2021/05/30 01:12:52;;;;;;;6.53;2.97;;;410.00;1945.60;;;;;;5033313;28;20021;-80
2021/05/30 01:15:18;;;;;;;5.72;3.50;;;409.90;1945.60;;;;;;5033133;28;20025;-80
2021/05/30 01:17:46;;;;;;;4.25;3.08;;;409.80;1945.60;;;;;;5031898;28;20071;-80
2021/05/30 01:20:15;;;;;;;8.80;3.03;;;409.90;1945.60;;;;;;5031687;28;20040;-81
2021/05/30 01:22:42;;;;;;;5.85;2.85;;;409.70;1971.20;;;;;;5019136;28;20026;-81
2021/05/30 01:25:10;;;;;;;6.00;3.03;;;409.60;1971.20;;;;;;5032784;28;20033;-81
2021/05/30 01:27:35;;;;;;;4.97;3.17;;;409.60;1971.20;;;;;;5032682;28;20095;-81
2021/05/30 01:30:01;;;;;;;6.82;3.10;;;409.60;1971.20;;;;;;5031431;28;20049;-80
2021/05/30 01:32:27;;;;;;;6.38;3.20;;;409.60;1996.80;;;;;;5032817;28;20029;-80
2021/05/30 01:34:53;;;;;;;6.85;3.45;;;409.70;1971.20;;;;;;5064765;28;20108;-80
2021/05/30 01:37:19;;;;;;;4.75;3.03;;;409.60;1996.80;;;;;;5031689;28;20044;-81
2021/05/30 01:39:45;;;;;;;5.63;3.53;;;409.60;1996.80;;;;;;5031201;28;20475;-80
2021/05/30 01:42:10;;;;;;;5.55;4.10;;;384.90;1996.80;;;;;;5031608;28;20030;-80
2021/05/30 01:44:36;;;;;;;5.75;3.47;;;409.60;1996.80;;;;;;5031321;28;20053;-80
2021/05/30 01:47:02;;;;;;;6.07;3.78;;;409.70;1996.80;;;;;;5031471;28;20104;-81
2021/05/30 01:49:28;;;;;;;5.15;3.83;;;384.90;1971.20;;;;;;5031437;28;20164;-80
2021/05/30 01:51:54;;;;;;;7.20;4.68;;;384.70;2022.40;;;;;;5029499;28;20029;-80
2021/05/30 01:54:20;;;;;;;8.85;4.35;;;384.70;2022.40;;;;;;5014841;28;20036;-80
2021/05/30 01:56:58;;;;;;;15.75;4.65;;;384.80;2022.40;;;;;;5015035;28;20068;-81
2021/05/30 01:59:28;;;;;;;9.15;4.18;;;384.90;1996.80;;;;;;5024081;28;20057;-80
2021/05/30 02:01:56;;;;;;;8.13;4.05;;;384.80;2048.00;;;;;;5028664;28;20418;-81
2021/05/30 02:04:39;;;;;;;5.68;3.90;;;384.90;2022.40;;;;;;5031520;28;20529;-80
2021/05/30 02:07:04;;;;;;;6.57;4.38;;;384.70;2048.00;;;;;;5017175;28;20101;-81
2021/05/30 02:09:31;;;;;;;11.57;4.60;;;384.60;2048.00;;;;;;5031019;28;20120;-80
2021/05/30 02:11:58;;;;;;;6.50;4.60;;;384.70;2048.00;;;;;;5032553;28;20025;-81
2021/05/30 02:14:24;;;;;;;7.47;4.70;;;384.70;2048.00;;;;;;5031185;28;20033;-81
2021/05/30 02:16:50;;;;;;;8.52;5.10;;;384.60;2073.60;;;;;;5031156;28;20069;-80
2021/05/30 02:19:16;;;;;;;7.75;4.68;;;384.60;2048.00;;;;;;5032385;28;20022;-81
2021/05/30 02:21:52;;;;;;;6.20;4.80;;;384.60;2073.60;;;;;;5031017;28;20040;-80
2021/05/30 02:24:20;;;;;;;4.55;4.00;;;384.40;2099.20;;;;;;5030977;28;20101;-80
2021/05/30 02:26:47;;;;;;;6.57;4.57;;;384.50;2073.60;;;;;;5022359;28;20065;-80
2021/05/30 02:29:35;;;;;;;6.60;4.95;;;384.50;2073.60;;;;;;5028832;28;20578;-80
2021/05/30 02:32:05;;;;;;;5.32;4.35;;;384.60;2073.60;;;;;;5030627;28;20085;-81
2021/05/30 02:34:31;;;;;;;7.32;4.15;;;384.60;2073.60;;;;;;5018760;28;20029;-81
2021/05/30 02:36:58;;;;;;;6.43;4.32;;;384.60;2073.60;;;;;;5028006;28;20017;-80
2021/05/30 02:39:23;;;;;;;8.70;5.60;;;384.60;2073.60;;;;;;5028637;28;20028;-80
2021/05/30 02:41:49;;;;;;;9.10;4.78;;;384.70;2073.60;;;;;;5036135;28;20463;-80
2021/05/30 02:44:16;;;;;;;8.60;4.72;;;384.70;2073.60;;;;;;5035275;28;20036;-80
2021/05/30 02:46:41;;;;;;;7.38;4.95;;;384.90;2048.00;;;;;;5033980;28;20040;-81
2021/05/30 02:49:07;;;;;;;6.97;4.57;;;409.60;2073.60;;;;;;5024641;28;20018;-81
2021/05/30 02:51:33;;;;;;;8.00;4.70;;;409.60;2073.60;;;;;;5034592;28;20476;-81
2021/05/30 02:54:00;;;;;;;6.93;4.70;;;409.60;2073.60;;;;;;5034707;28;20026;-83
2021/05/30 02:56:26;;;;;;;7.60;4.30;;;409.60;2073.60;;;;;;5034898;28;20030;-81
2021/05/30 02:58:52;;;;;;;6.82;5.13;;;409.60;2073.60;;;;;;5031575;28;20033;-82
2021/05/30 03:01:18;;;;;;;10.20;5.95;;;409.60;2099.20;;;;;;5027319;28;20079;-82
2021/05/30 03:03:44;;;;;;;11.57;6.82;;;409.60;2099.20;;;;;;5033416;28;20442;-81
2021/05/30 03:06:09;;;;;;;7.65;5.90;;;409.60;2073.60;;;;;;5017784;28;20645;-81
2021/05/30 03:08:35;;;;;;;8.77;5.72;;;384.80;2073.60;;;;;;5017892;28;20022;-81
2021/05/30 03:11:01;;;;;;;9.15;6.55;;;384.90;2073.60;;;;;;5029318;28;20391;-81
2021/05/30 03:13:26;;;;;;;9.32;7.10;;;384.90;2073.60;;;;;;5017996;28;20057;-81
2021/05/30 03:15:52;;;;;;;9.18;6.68;;;409.70;2073.60;;;;;;5034292;28;20507;-82
2021/05/30 03:18:18;;;;;;;9.75;6.05;;;409.70;2048.00;;;;;;5035720;28;20536;-81
2021/05/30 03:20:43;;;;;;;12.27;5.47;;;409.80;2048.00;;;;;;5032191;28;20029;-81
2021/05/30 03:23:09;;;;;;;8.10;4.85;;;410.00;2022.40;;;;;;5027302;28;20026;-81
2021/05/30 03:25:36;;;;;;;8.70;4.95;;;409.90;2048.00;;;;;;5035065;28;20104;-81
2021/05/30 03:28:03;;;;;;;6.38;4.80;;;410.00;2022.40;;;;;;5032802;28;20057;-81
2021/05/30 03:30:29;;;;;;;6.07;4.63;;;410.00;2048.00;;;;;;5024417;28;20029;-81
2021/05/30 03:32:54;;;;;;;10.15;4.72;;;410.00;2022.40;;;;;;5033817;28;20388;-81
2021/05/30 03:35:20;;;;;;;9.55;4.93;;;409.90;2048.00;;;;;;5022870;28;20038;-81
2021/05/30 03:37:46;;;;;;;7.57;4.07;;;410.00;2022.40;;;;;;5033908;28;20026;-81
2021/05/30 03:40:39;;;;;;;6.20;3.88;;;410.00;2022.40;;;;;;5033841;28;20076;-81
2021/05/30 03:43:00;;;;;;;;;;;410.00;2022.40;;;;;;5034588;28;20026;-80
2021/05/30 03:45:26;;;;;;;6.32;3.63;;;410.00;2048.00;;;;;;5029150;28;19905;-81
2021/05/30 03:47:52;;;;;;;6.10;4.07;;;409.90;2048.00;;;;;;5034663;28;20030;-81
2021/05/30 03:50:19;;;;;;;8.95;4.70;;;410.00;2048.00;;;;;;5033385;28;20502;-81
2021/05/30 03:52:45;;;;;;;6.15;4.38;;;410.00;2048.00;;;;;;5033700;28;20525;-81
2021/05/30 03:55:12;;;;;;;7.85;4.43;;;410.00;2022.40;;;;;;5034456;28;20037;-81
2021/05/30 03:57:38;;;;;;;9.35;4.28;;;410.00;2022.40;;;;;;5033611;28;20506;-81
2021/05/30 04:00:07;;;;;;;6.20;4.15;;;410.10;2022.40;;;;;;5033203;28;20037;-81
2021/05/30 04:02:32;;;;;;;9.45;3.95;;;410.10;2022.40;;;;;;5033630;28;20382;-81
2021/05/30 04:04:58;;;;;;;8.15;4.15;;;410.10;2022.40;;;;;;5033203;28;20026;-81
2021/05/30 04:07:24;;;;;;;7.45;3.83;;;410.00;2048.00;;;;;;5030298;28;20434;-80
2021/05/30 04:09:50;;;;;;;6.70;4.40;;;410.10;2022.40;;;;;;5016658;28;20120;-81
2021/05/30 04:12:15;;;;;;;6.20;3.78;;;410.20;2022.40;;;;;;5031754;28;20032;-82
2021/05/30 04:14:41;;;;;;;6.25;4.15;;;410.20;2048.00;;;;;;5033296;28;20025;-81
2021/05/30 04:17:07;;;;;;;7.18;4.50;;;410.10;2022.40;;;;;;5033119;28;20039;-81
2021/05/30 04:19:33;;;;;;;6.32;4.50;;;410.20;2022.40;;;;;;5027954;28;20017;-81
2021/05/30 04:22:00;;;;;;;7.35;4.13;;;410.30;1996.80;;;;;;5027350;28;20025;-81
2021/05/30 04:24:26;;;;;;;7.20;4.68;;;410.20;1996.80;;;;;;5029675;28;20087;-81
2021/05/30 04:26:52;;;;;;;5.50;4.00;;;410.20;1996.80;;;;;;5025822;28;20029;-81
2021/05/30 04:29:18;;;;;;;7.50;4.18;;;410.30;1996.80;;;;;;5034131;28;20115;-80
2021/05/30 04:31:43;;;;;;;6.05;4.47;;;410.40;1996.80;;;;;;5033889;28;20022;-81
2021/05/30 04:34:09;;;;;;;5.05;3.63;;;410.30;1996.80;;;;;;5026004;28;20032;-81
2021/05/30 04:36:35;;;;;;;7.00;4.47;;;410.20;1996.80;;;;;;5016679;28;20075;-81
2021/05/30 04:39:01;;;;;;;7.70;3.75;;;410.20;1996.80;;;;;;5033599;28;20021;-81
2021/05/30 04:41:26;;;;;;;8.40;4.57;;;410.20;1996.80;;;;;;5033690;28;20037;-81
2021/05/30 04:43:52;;;;;;;7.28;4.72;;;410.30;1945.60;;;;;;5021123;28;20112;-81
2021/05/30 04:46:18;;;;;;;5.38;3.53;;;410.20;1920.00;;;;;;5033832;28;20026;-81
2021/05/30 04:48:44;;;;;;;6.03;4.18;;;409.80;1996.80;;;;;;5019170;28;20468;-81
2021/05/30 04:51:13;;;;;;;7.18;3.85;;;409.80;1971.20;;;;;;5033444;28;20493;-79
2021/05/30 04:53:45;;;;;;;7.53;3.75;;;409.80;1971.20;;;;;;5033358;28;20014;-81
2021/05/30 04:56:17;;;;;;;7.85;3.63;;;409.80;1971.20;;;;;;5022491;28;20034;-81
2021/05/30 04:58:43;;;;;;;5.72;3.75;;;409.90;1971.20;;;;;;5015624;28;20029;-81
2021/05/30 05:01:09;;;;;;;5.65;3.80;;;409.70;1971.20;;;;;;5032685;28;20044;-81
2021/05/30 05:03:35;;;;;;;4.57;3.50;;;409.90;1945.60;;;;;;5015365;28;20476;-81
2021/05/30 05:06:01;;;;;;;7.38;3.75;;;409.90;1971.20;;;;;;5033024;28;20049;-81
2021/05/30 05:08:26;;;;;;;6.95;3.72;;;409.70;1971.20;;;;;;5017003;28;20471;-81
2021/05/30 05:10:53;;;;;;;6.00;3.50;;;410.00;1945.60;;;;;;5015356;28;20021;-79
2021/05/30 05:13:19;;;;;;;7.25;4.07;;;410.00;1945.60;;;;;;5015467;28;20018;-79
2021/05/30 05:15:50;;;;;;;6.38;3.83;;;410.20;1920.00;;;;;;5032736;28;20116;-79
2021/05/30 05:18:29;;;;;;;6.45;3.22;;;410.20;1920.00;;;;;;5015900;28;20024;-79
2021/05/30 05:20:55;;;;;;;5.05;3.70;;;410.20;1945.60;;;;;;5003088;28;20040;-79
2021/05/30 05:23:22;;;;;;;8.43;4.03;;;410.20;1920.00;;;;;;5013092;28;20038;-78
2021/05/30 05:26:02;;;;;;;6.53;3.95;;;410.30;1894.40;;;;;;5045228;28;20021;-79
2021/05/30 05:28:28;;;;;;;7.05;3.78;;;410.40;1894.40;;;;;;5047859;28;20116;-79
2021/05/30 05:30:54;;;;;;;5.63;4.03;;;410.50;1868.80;;;;;;5033044;28;20021;-80
2021/05/30 05:33:21;;;;;;;5.45;3.85;;;410.50;1894.40;;;;;;5028318;28;20128;-79
2021/05/30 05:35:47;;;;;;;6.55;4.70;;;410.30;1894.40;;;;;;5015067;28;20026;-80
2021/05/30 05:38:13;;;;;;;8.02;4.70;;;410.30;1894.40;;;;;;5032314;28;20040;-80
2021/05/30 05:40:38;;;;;;;6.20;4.88;;;410.40;1894.40;;;;;;5014481;28;20191;-81
2021/05/30 05:43:05;;;;;;;9.20;4.25;;;435.20;1868.80;;;;;;5015380;28;20045;-83
2021/05/30 05:45:31;;;;;;;11.75;3.97;;;435.20;1817.60;;;;;;5015295;28;20072;-83
2021/05/30 05:47:57;;;;;;;7.93;4.53;;;435.50;1792.00;;;;;;5015203;28;20023;-85
2021/05/30 05:50:24;;;;;;;10.20;4.82;;;435.50;1792.00;;;;;;5042269;28;20104;-82
2021/05/30 05:52:51;;;;;;;8.80;4.85;;;435.50;1843.20;;;;;;5015430;28;20109;-84
2021/05/30 05:55:20;;;;;;;9.13;5.05;;;435.80;1792.00;;;;;;5014498;28;20037;-83
2021/05/30 05:57:48;;;;;;;10.32;5.50;;;435.80;1766.40;;;;;;5015260;28;20045;-81
2021/05/30 06:00:17;;;;;;;8.93;5.13;;;435.80;1766.40;;;;;;5015476;28;20382;-83
2021/05/30 06:02:45;;;;;;;6.05;4.25;;;435.90;1766.40;;;;;;5015212;28;20030;-84
2021/05/30 06:05:14;;;;;;;9.45;4.05;;;435.80;1792.00;;;;;;5015707;28;20018;-85
2021/05/30 06:07:40;;;;;;;7.57;4.32;;;435.90;1715.20;;;;;;5015067;28;20052;-84
2021/05/30 06:10:06;;;;;;;7.45;3.20;;;436.00;1715.20;;;;;;5033562;28;20406;-84
2021/05/30 06:12:32;;;;;;;6.85;3.38;;;436.10;1715.20;;;;;;5017287;28;20091;-85
2021/05/30 06:14:59;;;;;;;4.65;2.90;;;436.10;1689.60;;;;;;5019569;28;20033;-85
2021/05/30 06:17:24;;;;;;;6.32;3.53;;;436.00;1664.00;;;;;;5019684;28;20083;-85
2021/05/30 06:19:50;;;;;;;5.68;3.28;;;436.10;1612.80;;;;;;5018542;28;20041;-79
2021/05/30 06:22:17;;;;;;;4.75;2.60;;;436.10;1664.00;;;;;;5046320;28;20018;-80
2021/05/30 06:24:43;;;;;;;8.65;2.50;;;436.10;1664.00;;;;;;5051542;28;20480;-80
2021/05/30 06:27:09;;;;;;;6.20;3.00;;;436.10;1689.60;;;;;;5047648;28;20617;-79
2021/05/30 06:29:35;;;;;;;7.40;3.00;;;460.80;1689.60;;;;;;5018124;28;20103;-80
2021/05/30 06:32:01;;;;;;;6.15;3.08;;;460.80;1689.60;;;;;;5018538;28;20089;-79
2021/05/30 06:34:27;;;;;;;8.15;3.13;;;460.80;1715.20;;;;;;5018498;28;20502;-82
2021/05/30 06:36:53;;;;;;;3.78;2.60;;;461.10;1638.40;;;;;;5033059;28;20017;-82
2021/05/30 06:39:19;;;;;;;8.32;3.22;;;461.20;1638.40;;;;;;5033374;28;20045;-82
2021/05/30 06:41:46;;;;;;;7.03;2.92;;;461.10;1612.80;;;;;;5035488;28;20037;-78
2021/05/30 06:44:12;;;;;;;4.78;2.95;;;461.10;1587.20;;;;;;5018272;28;20021;-80
2021/05/30 06:46:38;;;;;;;3.85;2.47;;;461.10;1612.80;;;;;;5005755;28;20017;-81
2021/05/30 06:49:04;;;;;;;4.60;2.90;;;461.20;1612.80;;;;;;5033329;28;20037;-83
2021/05/30 06:51:32;;;;;;;7.05;2.58;;;461.20;1561.60;;;;;;5022231;28;20067;-83
2021/05/30 06:53:59;;;;;;;4.97;3.15;;;461.20;1612.80;;;;;;5018581;28;20021;-82
2021/05/30 06:56:26;;;;;;;5.43;3.13;;;461.30;1561.60;;;;;;5027189;28;20029;-83
2021/05/30 06:58:52;;;;;;;5.78;3.05;;;461.50;1561.60;;;;;;5036061;28;20029;-81
2021/05/30 07:01:20;;;;;;;3.60;2.42;;;461.70;1561.60;;;;;;5036147;28;20040;-82
2021/05/30 07:03:47;;;;;;;4.03;2.60;;;461.50;1561.60;;;;;;5035875;28;20533;-80
2021/05/30 07:06:14;;;;;;;3.10;2.30;;;461.50;1536.00;;;;;;5051057;28;20614;-81
2021/05/30 07:08:39;;;;;;;5.30;2.60;;;461.70;1561.60;;;;;;5035565;28;20020;-82
2021/05/30 07:11:05;;;;;;;4.07;2.70;;;486.40;1561.60;;;;;;5022329;28;20025;-80
2021/05/30 07:13:31;;;;;;;4.43;2.65;;;486.40;1536.00;;;;;;5033052;28;20022;-80
2021/05/30 07:15:57;;;;;;;4.63;2.78;;;486.40;1561.60;;;;;;5035733;28;20348;-79
2021/05/30 07:18:23;;;;;;;5.38;2.13;;;486.50;1587.20;;;;;;5025601;28;20021;-78
2021/05/30 07:20:53;;;;;;;4.25;2.35;;;486.70;1536.00;;;;;;5017602;28;20063;-77
2021/05/30 07:23:22;;;;;;;3.60;1.80;;;486.50;1536.00;;;;;;5034931;28;20017;-79
2021/05/30 07:25:50;;;;;;;2.65;1.60;;;486.70;1484.80;;;;;;5016791;28;20029;-78
2021/05/30 07:28:16;;;;;;;3.90;2.55;;;487.00;1484.80;;;;;;5022397;28;20132;-81
2021/05/30 07:30:41;;;;;;;3.15;1.95;;;487.10;1433.60;;;;;;5018670;28;20060;-77
2021/05/30 07:33:07;;;;;;;5.25;2.40;;;487.10;1408.00;;;;;;5034584;28;20429;-79
2021/05/30 07:35:34;;;;;;;3.45;2.20;;;486.90;1433.60;;;;;;5034917;28;20031;-78
2021/05/30 07:38:00;;;;;;;2.95;2.00;;;486.70;1408.00;;;;;;5034699;28;20527;-80
2021/05/30 07:40:27;;;;;;;4.95;2.63;;;486.90;1484.80;;;;;;5033475;28;20048;-78
2021/05/30 07:42:53;;;;;;;4.32;2.08;;;486.60;1433.60;;;;;;5031701;28;20483;-79
2021/05/30 07:45:20;;;;;;;4.97;2.70;;;486.60;1459.20;;;;;;5029558;28;20029;-79
2021/05/30 07:47:47;;;;;;;4.57;3.05;;;486.50;1536.00;;;;;;5050899;28;20426;-81
2021/05/30 07:50:15;;;;;;;5.07;2.30;;;486.70;1459.20;;;;;;5017721;28;20025;-80
2021/05/30 07:52:41;;;;;;;6.10;2.70;;;486.80;1433.60;;;;;;5016528;28;20029;-79
2021/05/30 07:55:09;;;;;;;4.35;2.65;;;487.00;1433.60;;;;;;5034348;28;20533;-79
2021/05/30 07:57:34;;;;;;;4.63;3.00;;;487.10;1382.40;;;;;;5020195;28;20037;-79
2021/05/30 08:00:01;;;;;;;3.95;2.38;;;487.20;1382.40;;;;;;5016206;28;20095;-78
2021/05/30 08:02:28;;;;;;;6.50;2.33;;;487.20;1356.80;;;;;;5016537;28;20124;-83
2021/05/30 08:04:55;;;;;;;6.63;2.60;;;487.20;1408.00;;;;;;5017083;28;20083;-79
2021/05/30 08:07:22;;;;;;;4.03;2.42;;;487.30;1408.00;;;;;;5014250;28;20063;-80
2021/05/30 08:09:49;;;;;;;5.05;2.63;;;487.10;1459.20;;;;;;5034333;28;20021;-80
2021/05/30 08:12:14;;;;;;;5.18;2.88;;;487.00;1433.60;;;;;;5016243;28;20025;-80
2021/05/30 08:14:41;;;;;;;4.00;2.50;;;487.30;1408.00;;;;;;5016600;28;20472;-81
2021/05/30 08:17:07;;;;;;;6.85;2.35;;;487.30;1382.40;;;;;;5018773;28;20028;-81
2021/05/30 08:19:33;;;;;;;10.05;3.35;;;512.00;1382.40;;;;;;5033319;28;20467;-80
2021/05/30 08:21:59;;;;;;;3.97;2.55;;;487.30;1433.60;;;;;;5015560;28;20132;-80
2021/05/30 08:24:25;;;;;;;4.85;2.53;;;487.20;1433.60;;;;;;5016218;28;20033;-81
2021/05/30 08:26:53;;;;;;;5.22;3.30;;;487.00;1433.60;;;;;;5048011;28;20507;-83
2021/05/30 08:29:20;;;;;;;6.22;3.00;;;486.90;1433.60;;;;;;5017027;28;20049;-79
2021/05/30 08:31:47;;;;;;;3.35;2.28;;;486.90;1408.00;;;;;;5032859;28;20071;-79
2021/05/30 08:34:13;;;;;;;6.90;2.55;;;487.00;1433.60;;;;;;5032041;28;20029;-79
2021/05/30 08:36:39;;;;;;;4.50;2.60;;;487.20;1382.40;;;;;;5032828;28;20024;-79
2021/05/30 08:39:05;;;;;;;4.72;3.15;;;487.30;1382.40;;;;;;5032727;28;20395;-80
2021/05/30 08:41:31;;;;;;;7.72;4.13;;;487.30;1356.80;;;;;;5018623;28;20035;-78
2021/05/30 08:43:56;;;;;;;3.55;2.70;;;512.00;1356.80;;;;;;5032458;28;20112;-81
2021/05/30 08:46:22;;;;;;;3.80;2.40;;;487.30;1356.80;;;;;;5020145;28;20100;-80
2021/05/30 08:48:48;;;;;;;4.65;2.85;;;487.30;1382.40;;;;;;5032603;28;20025;-81
2021/05/30 08:51:15;;;;;;;5.65;2.60;;;512.20;1382.40;;;;;;5022631;28;20033;-81
2021/05/30 08:53:43;;;;;;;4.82;2.42;;;512.40;1331.20;;;;;;5033430;28;20079;-80
2021/05/30 08:56:12;;;;;;;4.32;2.42;;;512.60;1331.20;;;;;;5014860;28;20084;-79
2021/05/30 08:58:43;;;;;;;3.22;2.38;;;512.80;1331.20;;;;;;5033009;28;20017;-79
2021/05/30 09:01:10;;;;;;;10.57;2.50;;;537.60;1356.80;;;;;;5019830;28;20108;-82
2021/05/30 09:04:06;;;;;;;4.00;2.47;;;512.90;1305.60;;;;;;5015455;28;20021;-79
2021/05/30 09:06:34;;;;;;;3.38;1.92;;;512.90;1356.80;;;;;;5016865;28;20505;-79
2021/05/30 09:09:01;;;;;;;3.85;2.05;;;512.90;1305.60;;;;;;5015522;28;20471;-81
2021/05/30 09:11:50;;;;;;;4.07;2.40;;;512.90;1356.80;;;;;;5033029;28;20026;-78
2021/05/30 09:14:20;;;;;;;5.22;2.35;;;512.80;1305.60;;;;;;5024602;28;20480;-78
2021/05/30 09:16:54;;;;;;;3.50;1.92;;;512.70;1280.00;;;;;;5027373;28;20041;-78
2021/05/30 09:19:31;;;;;;;4.60;2.53;;;512.40;1305.60;;;;;;5021235;28;20029;-79
2021/05/30 09:22:21;;;;;;;3.55;2.42;;;512.50;1331.20;;;;;;5038240;28;20037;-78
2021/05/30 09:24:50;;;;;;;3.60;2.67;;;512.90;1305.60;;;;;;5029639;28;20040;-79
2021/05/30 09:27:21;;;;;;;4.80;2.40;;;537.70;1305.60;;;;;;5015628;28;20029;-77
2021/05/30 09:30:11;;;;;;;7.18;2.25;;;538.00;1254.40;;;;;;5014025;28;20042;-78
2021/05/30 09:33:04;;;;;;;4.32;2.60;;;537.70;1305.60;;;;;;5014248;28;20025;-77
2021/05/30 09:35:46;;;;;;;5.43;2.55;;;537.90;1280.00;;;;;;5003497;28;20032;-82
2021/05/30 09:38:30;;;;;;;5.55;2.33;;;537.70;1331.20;;;;;;4999904;28;20423;-77
2021/05/30 09:41:10;;;;;;;4.28;2.60;;;537.90;1280.00;;;;;;5036686;28;20120;-77
2021/05/30 09:43:46;;;;;;;4.20;2.25;;;538.30;1254.40;;;;;;5011621;28;20017;-78
2021/05/30 09:46:14;;;;;;;3.17;2.15;;;538.40;1228.80;;;;;;5032096;28;20048;-77
2021/05/30 09:48:53;;;;;;;2.90;2.00;;;538.50;1228.80;;;;;;5004347;28;20053;-82
2021/05/30 09:51:32;;;;;;;3.53;2.42;;;538.20;1203.20;;;;;;5017351;28;20045;-79
2021/05/30 09:54:17;;;;;;;2.50;1.80;;;537.60;1254.40;;;;;;5029116;28;20541;-78
2021/05/30 09:56:44;;;;;;;3.38;2.20;;;512.70;1305.60;;;;;;5012269;28;20423;-79
2021/05/30 09:59:18;;;;;;;4.75;2.30;;;512.70;1331.20;;;;;;5014673;28;20052;-82
2021/05/30 10:01:58;;;;;;;2.47;1.75;;;537.70;1280.00;;;;;;5002126;28;20053;-80
2021/05/30 10:04:30;;;;;;;2.67;1.90;;;538.20;1254.40;;;;;;5019754;28;20026;-80
2021/05/30 10:06:57;;;;;;;4.38;2.15;;;563.20;1152.00;;;;;;5031966;28;20020;-82
2021/05/30 10:09:24;;;;;;;8.85;2.20;;;563.50;1152.00;;;;;;5013888;28;20029;-79
2021/05/30 10:11:50;;;;;;;6.05;2.05;;;563.90;1126.40;;;;;;5014223;28;20052;-79
2021/05/30 10:14:16;;;;;;;3.75;2.10;;;588.80;1126.40;;;;;;5014651;28;20030;-80
2021/05/30 10:16:42;;;;;;;2.67;1.70;;;588.90;1049.60;;;;;;5014539;28;20464;-78
2021/05/30 10:19:33;;;;;;;6.22;2.15;;;563.60;1126.40;;;;;;5013242;28;20038;-80
2021/05/30 10:22:00;;;;;;;3.88;1.98;;;563.30;1152.00;;;;;;5014224;28;20116;-80
2021/05/30 10:24:27;;;;;;;4.88;2.20;;;538.40;1177.60;;;;;;5014107;28;20052;-80
2021/05/30 10:27:20;;;;;;;3.60;2.13;;;538.20;1203.20;;;;;;5014382;28;20022;-79
2021/05/30 10:30:13;;;;;;;3.63;2.20;;;538.10;1203.20;;;;;;5011090;28;20065;-80
2021/05/30 10:32:44;;;;;;;6.00;2.50;;;538.00;1203.20;;;;;;4995764;28;20049;-80
2021/05/30 10:35:16;;;;;;;3.17;1.80;;;537.90;1203.20;;;;;;4991383;28;20026;-80
2021/05/30 10:37:49;;;;;;;2.72;1.70;;;538.00;1177.60;;;;;;4991740;28;20030;-82
2021/05/30 10:40:20;;;;;;;7.57;2.10;;;537.90;1177.60;;;;;;4978542;28;20038;-80
2021/05/30 10:43:11;;;;;;;3.03;1.88;;;538.10;1203.20;;;;;;4991782;28;20378;-84
2021/05/30 10:45:43;;;;;;;2.20;1.50;;;538.10;1177.60;;;;;;4992774;28;20023;-79
2021/05/30 10:48:11;;;;;;;3.05;1.77;;;538.00;1177.60;;;;;;4991366;28;20118;-81
2021/05/30 10:50:40;;;;;;;2.72;1.85;;;537.90;1254.40;;;;;;4991986;28;20161;-81
2021/05/30 10:53:44;;;;;;;2.30;1.65;;;537.80;1254.40;;;;;;4991611;28;20026;-82
2021/05/30 10:56:33;;;;;;;2.83;1.73;;;537.70;1203.20;;;;;;4971300;28;20034;-82
2021/05/30 10:59:04;;;;;;;2.28;1.60;;;537.70;1280.00;;;;;;4957943;28;20023;-82
2021/05/30 11:01:44;;;;;;;3.60;1.80;;;537.60;1254.40;;;;;;4945564;29;20043;-83
2021/05/30 11:04:25;;;;;;;8.25;2.67;;;537.60;1254.40;;;;;;4963473;28;20113;-82
2021/05/30 11:07:02;;;;;;;5.28;2.35;;;512.90;1280.00;;;;;;4943442;29;20035;-82
2021/05/30 11:09:52;;;;;;;4.50;1.83;;;512.90;1228.80;;;;;;4939934;28;20049;-83
2021/05/30 11:12:28;;;;;;;3.38;1.90;;;537.70;1254.40;;;;;;4955686;29;20110;-82
2021/05/30 11:15:13;;;;;;;2.97;2.03;;;512.80;1228.80;;;;;;4939576;28;20027;-81
2021/05/30 11:17:41;;;;;;;2.72;1.88;;;537.80;1280.00;;;;;;4961759;28;20077;-84
2021/05/30 11:20:10;;;;;;;2.25;1.65;;;538.50;1152.00;;;;;;4968975;28;20065;-83
2021/05/30 11:22:49;;;;;;;3.28;1.55;;;563.50;1126.40;;;;;;4949657;28;20039;-82
2021/05/30 11:25:30;;;;;;;2.65;1.52;;;563.90;1075.20;;;;;;4956937;28;20035;-83
2021/05/30 11:28:05;;;;;;;3.20;1.80;;;564.10;1075.20;;;;;;4935710;28;20425;-80
2021/05/30 11:30:33;;;;;;;3.42;2.08;;;588.90;1049.60;;;;;;5000427;28;20093;-80
2021/05/30 11:33:00;;;;;;;2.40;1.50;;;588.90;1024.00;;;;;;5013385;28;20499;-79
2021/05/30 11:35:29;;;;;;;2.83;1.75;;;588.90;1075.20;;;;;;5013780;28;20014;-80
2021/05/30 11:37:55;;;;;;;4.93;1.75;;;589.10;1049.60;;;;;;5013307;28;20018;-80
2021/05/30 11:40:22;;;;;;;5.43;1.90;;;588.90;1126.40;;;;;;5012836;28;20092;-79
2021/05/30 11:42:49;;;;;;;1.70;1.38;;;588.90;1075.20;;;;;;5012418;28;20026;-79
2021/05/30 11:45:35;;;;;;;3.58;1.90;;;588.80;1152.00;;;;;;5013869;28;20399;-80
2021/05/30 11:48:12;;;;;;;3.35;1.85;;;564.10;1126.40;;;;;;5014659;28;20053;-81
2021/05/30 11:50:41;;;;;;;1.90;1.50;;;564.10;1126.40;;;;;;5010257;28;20045;-80
2021/05/30 11:53:30;;;;;;;3.88;1.70;;;564.00;1126.40;;;;;;5014343;28;20026;-80
2021/05/30 11:55:57;;;;;;;2.33;1.58;;;563.90;1126.40;;;;;;5013290;28;20025;-80
2021/05/30 11:58:24;;;;;;;2.50;1.50;;;563.70;1126.40;;;;;;5010361;28;20030;-80
2021/05/30 12:01:01;;;;;;;4.20;1.70;;;563.60;1177.60;;;;;;5013026;28;20192;-80
2021/05/30 12:03:27;;;;;;;3.63;1.80;;;563.20;1203.20;;;;;;5010227;28;20034;-80
2021/05/30 12:06:02;;;;;;;3.80;1.90;;;563.20;1177.60;;;;;;5013252;28;20514;-81
2021/05/30 12:08:28;;;;;;;5.20;1.92;;;538.50;1152.00;;;;;;5012678;28;20018;-80
2021/05/30 12:10:58;;;;;;;2.72;2.10;;;563.20;1126.40;;;;;;5012698;28;20037;-78
2021/05/30 12:13:26;;;;;;;8.00;1.88;;;538.50;1177.60;;;;;;5014741;28;20065;-78
2021/05/30 12:15:52;;;;;;;4.82;1.88;;;538.30;1177.60;;;;;;5012481;28;20018;-77
2021/05/30 12:18:18;;;;;;;3.53;1.83;;;538.20;1177.60;;;;;;5014788;28;20028;-80
2021/05/30 12:20:44;;;;;;;3.92;1.75;;;538.10;1203.20;;;;;;5012197;28;20406;-80
2021/05/30 12:23:12;;;;;;;4.15;1.77;;;538.10;1228.80;;;;;;5012952;28;20024;-82
2021/05/30 12:25:49;;;;;;;3.50;1.50;;;538.00;1177.60;;;;;;5012429;28;20036;-78
2021/05/30 12:28:15;;;;;;;4.10;1.95;;;537.90;1177.60;;;;;;5006335;28;20969;-81